Time;durP1;ratioP1;P1;durP2;ratioP2;P2;SDS_P1;SDS_P2;PMS_P1;PMS_P2;Temp;Humidity;BMP_temperature;BMP_pressure;BME280_temperature;BME280_humidity;BME280_pressure;Samples;Min_cycle;Max_cycle;Signal;HPM_P1;HPM_P2
2023/09/08 00:02:18;;;;;;;9.15;5.93;;;17.60;1.00;;;;;;10521370;28;20187;-83
2023/09/08 00:07:39;;;;;;;7.80;5.53;;;17.60;99.90;;;;;;10521200;28;20203;-82
2023/09/08 00:13:00;;;;;;;7.70;4.78;;;;;;;;;;10521069;28;20375;-85
2023/09/08 00:18:22;;;;;;;7.53;4.95;;;17.30;7.10;;;;;;10520721;28;20203;-84
2023/09/08 00:23:43;;;;;;;9.68;5.25;;;17.30;1.00;;;;;;10508339;28;20274;-85
2023/09/08 00:29:04;;;;;;;8.88;5.07;;;17.30;1.00;;;;;;10521257;28;20262;-84
2023/09/08 00:34:25;;;;;;;5.25;4.60;;;17.30;99.90;;;;;;10521043;28;20240;-84
2023/09/08 00:39:50;;;;;;;6.05;4.20;;;17.30;97.80;;;;;;10519749;28;20269;-84
2023/09/08 00:50:31;;;;;;;7.93;4.70;;;17.10;1.00;;;;;;10519663;28;20230;-83
2023/09/08 00:55:52;;;;;;;8.68;5.13;;;17.00;1.00;;;;;;10505249;28;20244;-84
2023/09/08 01:01:14;;;;;;;9.52;5.18;;;17.10;1.00;;;;;;10518994;28;20238;-83
2023/09/08 01:06:36;;;;;;;8.55;4.70;;;17.10;1.00;;;;;;10520073;28;20191;-82
2023/09/08 01:12:01;;;;;;;9.10;4.85;;;17.00;1.00;;;;;;10519200;28;20223;-80
2023/09/08 01:17:22;;;;;;;7.18;4.53;;;17.00;1.00;;;;;;10518672;28;20198;-84
2023/09/08 01:23:14;;;;;;;10.45;4.78;;;17.00;99.90;;;;;;10497280;28;20207;-84
2023/09/08 01:28:37;;;;;;;9.20;4.72;;;17.00;1.00;;;;;;10503965;28;20314;-84
2023/09/08 01:34:01;;;;;;;8.15;4.72;;;17.00;99.90;;;;;;10518515;28;20244;-84
2023/09/08 01:39:24;;;;;;;11.43;4.68;;;16.80;99.90;;;;;;10518133;28;20218;-84
2023/09/08 01:44:45;;;;;;;8.38;4.53;;;16.70;1.00;;;;;;10504353;28;20191;-84
2023/09/08 01:50:07;;;;;;;7.80;4.28;;;16.80;99.90;;;;;;10518420;28;20223;-83
2023/09/08 01:55:28;;;;;;;7.45;4.18;;;16.70;1.00;;;;;;10503598;28;20207;-82
2023/09/08 02:00:51;;;;;;;5.15;4.20;;;16.70;99.90;;;;;;10489897;28;20463;-85
2023/09/08 02:06:13;;;;;;;4.53;3.70;;;16.60;99.90;;;;;;10503691;28;20206;-85
2023/09/08 02:11:34;;;;;;;10.07;5.60;;;16.60;99.90;;;;;;10517672;28;20416;-84
2023/09/08 02:16:56;;;;;;;8.75;6.30;;;16.60;99.90;;;;;;10521758;28;20241;-83
2023/09/08 02:22:17;;;;;;;9.65;5.07;;;16.50;1.00;;;;;;10511362;28;20387;-84
2023/09/08 02:27:39;;;;;;;8.48;5.15;;;16.50;1.00;;;;;;10524626;28;20565;-83
2023/09/08 02:33:02;;;;;;;9.73;5.78;;;16.50;1.00;;;;;;10525946;28;20432;-84
2023/09/08 02:38:23;;;;;;;5.57;4.63;;;16.40;99.90;;;;;;10524703;28;20245;-84
2023/09/08 02:43:45;;;;;;;8.35;4.25;;;16.40;1.00;;;;;;10524263;28;20516;-82
2023/09/08 02:49:06;;;;;;;6.07;4.38;;;16.40;99.90;;;;;;10524256;28;20226;-83
2023/09/08 02:54:27;;;;;;;6.25;4.35;;;16.40;99.90;;;;;;10524361;28;20233;-84
2023/09/08 02:59:51;;;;;;;6.22;4.18;;;16.40;99.90;;;;;;10524661;28;20416;-83
2023/09/08 03:05:12;;;;;;;4.75;3.72;;;16.30;99.90;;;;;;10523700;28;20263;-83
2023/09/08 03:10:34;;;;;;;5.35;3.63;;;16.30;1.00;;;;;;10508835;28;20227;-85
2023/09/08 03:15:56;;;;;;;8.73;4.00;;;16.30;99.90;;;;;;10523632;28;20234;-85
2023/09/08 03:21:18;;;;;;;7.53;4.30;;;16.10;1.00;;;;;;10509916;28;20199;-84
2023/09/08 03:26:40;;;;;;;6.70;4.55;;;16.10;1.00;;;;;;10523710;28;20188;-83
2023/09/08 03:32:01;;;;;;;6.80;4.45;;;16.00;99.90;;;;;;10522465;28;20245;-82
2023/09/08 03:37:22;;;;;;;7.38;4.70;;;15.90;99.90;;;;;;10493962;28;20226;-84
2023/09/08 03:42:44;;;;;;;6.32;4.45;;;15.90;1.00;;;;;;10522233;28;20206;-84
2023/09/08 03:48:05;;;;;;;5.85;4.22;;;15.90;1.00;;;;;;10536111;28;20198;-85
2023/09/08 03:53:27;;;;;;;4.78;3.95;;;15.90;1.00;;;;;;10507273;28;20226;-84
2023/09/08 03:58:49;;;;;;;5.85;4.40;;;15.80;1.00;;;;;;10482721;28;20223;-83
2023/09/08 04:04:10;;;;;;;5.60;4.50;;;15.90;1.00;;;;;;10481012;28;20191;-83
2023/09/08 04:09:32;;;;;;;7.75;5.05;;;15.90;99.90;;;;;;10479811;28;20222;-85
2023/09/08 04:14:53;;;;;;;6.80;4.55;;;15.90;1.00;;;;;;10479911;28;20211;-85
2023/09/08 04:20:16;;;;;;;6.93;5.05;;;15.90;1.00;;;;;;10465519;28;20218;-84
2023/09/08 04:25:37;;;;;;;6.32;4.43;;;15.90;18.40;;;;;;10517733;28;20194;-84
2023/09/08 04:30:59;;;;;;;7.80;5.40;;;15.80;99.90;;;;;;10520601;28;20234;-84
2023/09/08 04:36:20;;;;;;;7.30;5.38;;;15.80;1.00;;;;;;10519981;28;20233;-84
2023/09/08 04:41:41;;;;;;;8.82;5.03;;;15.80;1.00;;;;;;10519335;28;20186;-81
2023/09/08 04:47:03;;;;;;;6.95;4.78;;;15.90;99.90;;;;;;10520666;28;20264;-84
2023/09/08 04:52:24;;;;;;;9.15;5.68;;;16.00;99.90;;;;;;10547972;28;20233;-84
2023/09/08 04:57:46;;;;;;;9.57;5.80;;;16.00;99.90;;;;;;10492323;28;20495;-84
2023/09/08 05:03:07;;;;;;;8.18;5.38;;;16.20;99.90;;;;;;10479043;28;20199;-85
2023/09/08 05:08:28;;;;;;;8.27;5.55;;;16.30;1.00;;;;;;10477634;28;20207;-85
2023/09/08 05:13:49;;;;;;;7.45;5.95;;;16.40;46.10;;;;;;10477980;28;20194;-84
2023/09/08 05:19:12;;;;;;;9.27;5.90;;;16.40;84.50;;;;;;10477755;28;20199;-82
2023/09/08 05:24:33;;;;;;;9.73;5.75;;;16.50;1.00;;;;;;10513054;28;20199;-79
2023/09/08 05:29:54;;;;;;;11.60;6.57;;;16.70;99.90;;;;;;10518197;28;20235;-81
2023/09/08 05:35:15;;;;;;;8.38;5.63;;;16.80;99.90;;;;;;10503912;28;20191;-86
2023/09/08 05:40:37;;;;;;;8.57;5.43;;;16.90;1.00;;;;;;10504905;28;20199;-84
2023/09/08 05:45:59;;;;;;;8.70;5.53;;;17.00;1.00;;;;;;10518927;28;20518;-77
2023/09/08 05:51:22;;;;;;;7.57;4.68;;;17.20;35.70;;;;;;10520879;28;20252;-80
2023/09/08 05:56:45;;;;;;;6.05;4.07;;;17.40;1.00;;;;;;10525609;28;20190;-83
2023/09/08 06:02:07;;;;;;;6.22;4.30;;;17.50;1.00;;;;;;10525830;28;20195;-80
2023/09/08 06:07:28;;;;;;;6.05;4.70;;;17.70;99.90;;;;;;10525363;28;20197;-80
2023/09/08 06:12:52;;;;;;;6.30;3.95;;;17.80;48.00;;;;;;10526010;28;20218;-75
2023/09/08 06:18:13;;;;;;;4.65;3.83;;;18.00;1.00;;;;;;10524682;28;20182;-78
2023/09/08 06:23:36;;;;;;;5.70;3.90;;;18.20;1.00;;;;;;10510495;28;20225;-77
2023/09/08 06:28:57;;;;;;;7.40;4.82;;;18.40;99.90;;;;;;10524191;28;20231;-77
2023/09/08 06:34:21;;;;;;;7.50;4.25;;;18.90;13.00;;;;;;10524924;28;20440;-79
2023/09/08 06:39:44;;;;;;;6.20;4.30;;;20.50;1.00;;;;;;10524048;28;20393;-79
2023/09/08 06:45:06;;;;;;;5.25;3.58;;;22.20;1.00;;;;;;10523172;28;20199;-78
2023/09/08 06:56:26;;;;;;;9.20;6.53;;;24.50;1.00;;;;;;9729285;24;20250;-82
2023/09/08 07:01:47;;;;;;;8.00;5.03;;;25.60;99.90;;;;;;9856873;30;20207;-83
2023/09/08 07:07:10;;;;;;;5.95;4.95;;;26.40;1.00;;;;;;9859210;30;20453;-79
2023/09/08 07:12:33;;;;;;;13.07;5.75;;;27.10;1.00;;;;;;9872300;30;20284;-86
2023/09/08 07:17:55;;;;;;;7.30;5.18;;;27.60;1.00;;;;;;9874417;29;20248;-85
2023/09/08 07:23:54;;;;;;;9.70;5.40;;;28.10;1.00;;;;;;9914242;29;20502;-83
2023/09/08 07:29:17;;;;;;;8.98;5.45;;;;;;;;;;9888269;29;20249;-84
2023/09/08 07:34:38;;;;;;;8.80;5.50;;;29.00;99.90;;;;;;9894962;30;20447;-79
2023/09/08 07:39:59;;;;;;;7.40;4.95;;;29.40;99.90;;;;;;9913057;30;20394;-80
2023/09/08 07:45:21;;;;;;;13.20;8.15;;;29.90;99.90;;;;;;9903991;30;20408;-80
2023/09/08 07:50:43;;;;;;;13.10;5.75;;;;;;;;;;9924413;29;20336;-80
2023/09/08 07:56:04;;;;;;;7.65;4.97;;;30.00;99.90;;;;;;9903571;30;20229;-79
2023/09/08 08:01:25;;;;;;;10.40;4.88;;;30.70;99.90;;;;;;9922632;29;20221;-82
2023/09/08 08:06:47;;;;;;;5.43;3.95;;;31.10;99.90;;;;;;9900206;30;20507;-81
2023/09/08 08:12:08;;;;;;;7.13;4.18;;;31.50;99.90;;;;;;9909325;29;20707;-82
2023/09/08 08:17:29;;;;;;;5.85;3.90;;;31.50;99.90;;;;;;9898174;29;20533;-82
2023/09/08 08:22:51;;;;;;;10.77;4.85;;;31.70;99.90;;;;;;9895154;29;20233;-82
2023/09/08 08:28:12;;;;;;;7.70;4.00;;;31.90;99.90;;;;;;9906318;30;20508;-87
2023/09/08 08:33:33;;;;;;;4.95;3.63;;;32.30;99.90;;;;;;9907322;29;20279;-81
2023/09/08 08:38:55;;;;;;;7.72;3.88;;;32.50;99.90;;;;;;9887668;30;20214;-81
2023/09/08 08:44:18;;;;;;;5.75;3.60;;;32.70;99.90;;;;;;9893475;29;20312;-80
2023/09/08 08:49:42;;;;;;;6.25;3.75;;;33.00;99.90;;;;;;9909513;29;20263;-82
2023/09/08 08:55:04;;;;;;;5.05;3.67;;;33.40;99.90;;;;;;9920532;29;20245;-82
2023/09/08 09:00:25;;;;;;;3.95;3.42;;;33.70;99.90;;;;;;9881374;30;20197;-83
2023/09/08 09:05:47;;;;;;;8.10;5.07;;;34.00;99.90;;;;;;9887308;29;20275;-80
2023/09/08 09:11:08;;;;;;;7.60;4.07;;;34.20;99.90;;;;;;9901478;30;20614;-82
2023/09/08 09:16:29;;;;;;;3.92;3.45;;;34.50;99.90;;;;;;9922087;29;20266;-90
2023/09/08 09:21:54;;;;;;;5.45;3.42;;;34.60;99.90;;;;;;9913795;30;20220;-84
2023/09/08 09:27:15;;;;;;;8.45;4.88;;;34.80;99.90;;;;;;9884669;29;20229;-81
2023/09/08 09:32:36;;;;;;;4.97;3.70;;;35.10;99.90;;;;;;9889349;29;20234;-81
2023/09/08 09:37:57;;;;;;;6.80;3.60;;;35.40;99.90;;;;;;9889693;29;20480;-83
2023/09/08 09:43:22;;;;;;;7.63;4.20;;;35.40;99.90;;;;;;9900314;29;20308;-89
2023/09/08 09:48:45;;;;;;;65.30;10.18;;;35.40;99.90;;;;;;9869316;30;20284;-80
2023/09/08 09:54:06;;;;;;;14.43;4.45;;;35.50;99.90;;;;;;9920427;29;20252;-84
2023/09/08 09:59:27;;;;;;;11.55;4.20;;;35.60;99.90;;;;;;9889021;29;20279;-79
2023/09/08 10:04:50;;;;;;;9.85;3.97;;;35.70;99.90;;;;;;9918726;29;20221;-83
2023/09/08 10:10:11;;;;;;;6.07;3.78;;;36.10;99.90;;;;;;9909640;29;20308;-83
2023/09/08 10:15:34;;;;;;;4.60;3.22;;;35.80;99.90;;;;;;9891053;29;20221;-91
2023/09/08 10:20:59;;;;;;;5.13;4.63;;;36.00;99.90;;;;;;9884570;29;20213;-86
2023/09/08 10:26:26;;;;;;;4.93;3.95;;;36.20;99.90;;;;;;9887483;29;20213;-82
2023/09/08 10:31:47;;;;;;;11.63;3.72;;;35.80;99.90;;;;;;9871283;30;20265;-82
2023/09/08 10:37:27;;;;;;;5.45;4.38;;;35.60;99.90;;;;;;9875803;29;20217;-78
2023/09/08 10:42:49;;;;;;;4.68;3.53;;;35.80;99.90;;;;;;9877132;30;20210;-78
2023/09/08 10:48:10;;;;;;;5.88;3.72;;;35.70;99.90;;;;;;9895063;29;20580;-81
2023/09/08 10:53:31;;;;;;;5.13;3.88;;;36.30;99.90;;;;;;9890604;30;20225;-80
2023/09/08 10:58:54;;;;;;;6.85;3.90;;;36.70;99.90;;;;;;9907579;29;20244;-80
2023/09/08 11:04:54;;;;;;;6.75;3.75;;;36.70;99.90;;;;;;9881578;30;20478;-84
2023/09/08 11:10:15;;;;;;;6.13;3.42;;;36.60;99.90;;;;;;9847827;30;20337;-80
2023/09/08 11:15:37;;;;;;;6.70;3.88;;;36.20;99.90;;;;;;9859636;30;20269;-80
2023/09/08 11:20:59;;;;;;;5.13;3.45;;;36.20;99.90;;;;;;9849230;30;20294;-80
2023/09/08 11:26:21;;;;;;;4.15;3.28;;;36.10;99.90;;;;;;9836497;30;20234;-81
2023/09/08 11:31:42;;;;;;;3.92;3.40;;;36.50;99.90;;;;;;9848225;30;20261;-80
2023/09/08 11:37:10;;;;;;;4.22;3.70;;;36.80;99.90;;;;;;9851768;30;20219;-80
2023/09/08 11:42:33;;;;;;;4.20;3.72;;;36.10;99.90;;;;;;9889249;29;20228;-83
2023/09/08 11:47:55;;;;;;;4.93;3.83;;;35.70;99.90;;;;;;9900976;29;20221;-83
2023/09/08 11:53:20;;;;;;;4.18;3.60;;;36.00;99.90;;;;;;9905571;30;20248;-80
2023/09/08 11:58:42;;;;;;;4.28;3.88;;;36.10;99.90;;;;;;9907181;30;20239;-80
2023/09/08 12:04:04;;;;;;;3.85;3.50;;;36.20;99.90;;;;;;9902566;29;20281;-81
2023/09/08 12:09:25;;;;;;;3.70;3.30;;;36.40;99.90;;;;;;9901642;29;20216;-82
2023/09/08 12:14:46;;;;;;;6.32;3.58;;;36.60;99.90;;;;;;9918322;29;20229;-82
2023/09/08 12:20:15;;;;;;;6.32;4.00;;;36.30;99.90;;;;;;9921516;29;20278;-81
2023/09/08 12:25:45;;;;;;;4.38;3.78;;;35.80;99.70;;;;;;9885138;30;20506;-80
2023/09/08 12:31:06;;;;;;;6.90;3.90;;;35.80;99.80;;;;;;9888795;29;20566;-80
2023/09/08 12:36:27;;;;;;;7.45;3.70;;;35.70;98.10;;;;;;9906727;30;20431;-80
2023/09/08 12:41:48;;;;;;;5.00;3.60;;;35.30;97.40;;;;;;9909076;29;20205;-80
2023/09/08 12:47:12;;;;;;;11.88;4.07;;;35.00;97.60;;;;;;9885367;29;20213;-89
2023/09/08 12:52:33;;;;;;;4.63;3.88;;;34.70;97.10;;;;;;9906231;29;20592;-84
2023/09/08 12:57:55;;;;;;;4.47;3.50;;;34.60;96.70;;;;;;9900720;30;20283;-79
2023/09/08 13:03:16;;;;;;;5.88;4.15;;;34.60;96.70;;;;;;9912461;29;20223;-81
2023/09/08 13:08:37;;;;;;;9.00;4.57;;;34.30;96.40;;;;;;9908386;29;20221;-86
2023/09/08 13:13:58;;;;;;;3.95;3.55;;;34.30;96.90;;;;;;9924230;29;20232;-82
2023/09/08 13:19:19;;;;;;;7.88;4.25;;;33.90;95.90;;;;;;9921707;29;20225;-83
2023/09/08 13:24:40;;;;;;;7.25;3.45;;;33.80;95.50;;;;;;9923348;29;20248;-82
2023/09/08 13:30:12;;;;;;;8.98;4.38;;;33.60;95.80;;;;;;9920185;29;20233;-84
2023/09/08 13:35:34;;;;;;;6.45;3.67;;;33.50;96.30;;;;;;9923557;29;20228;-78
2023/09/08 13:40:54;;;;;;;8.35;4.63;;;33.10;98.10;;;;;;9920819;29;20243;-83
2023/09/08 13:46:17;;;;;;;8.88;3.83;;;32.70;95.20;;;;;;9922353;30;20200;-80
2023/09/08 13:51:38;;;;;;;17.80;4.82;;;32.60;95.80;;;;;;9888154;30;20252;-79
2023/09/08 13:57:01;;;;;;;6.68;3.92;;;32.30;96.30;;;;;;9926405;29;20577;-82
2023/09/08 14:02:22;;;;;;;9.98;4.05;;;32.00;99.90;;;;;;9926495;29;20208;-79
2023/09/08 14:07:47;;;;;;;9.60;4.10;;;31.70;96.30;;;;;;9905354;29;20464;-82
2023/09/08 14:13:14;;;;;;;4.95;4.03;;;31.60;99.90;;;;;;9909555;30;20236;-78
2023/09/08 14:18:36;;;;;;;7.47;4.10;;;31.20;99.90;;;;;;9928247;29;20399;-81
2023/09/08 14:23:57;;;;;;;3.42;3.13;;;31.00;95.00;;;;;;9929030;30;20209;-84
2023/09/08 14:29:18;;;;;;;4.30;3.72;;;30.90;96.10;;;;;;9911756;29;20221;-82
2023/09/08 14:34:39;;;;;;;6.45;3.90;;;30.60;95.40;;;;;;9906805;30;20201;-88
2023/09/08 14:40:01;;;;;;;13.85;7.43;;;30.40;99.90;;;;;;9948499;29;20223;-79
2023/09/08 14:45:22;;;;;;;4.72;4.32;;;30.40;1.00;;;;;;9934992;29;20244;-79
2023/09/08 14:50:43;;;;;;;5.80;4.30;;;30.20;1.00;;;;;;9946696;29;20232;-79
2023/09/08 14:56:05;;;;;;;8.02;4.70;;;30.10;1.00;;;;;;9943983;29;20244;-79
2023/09/08 15:01:27;;;;;;;6.07;4.07;;;29.80;1.00;;;;;;9927929;29;20237;-78
2023/09/08 15:06:49;;;;;;;6.65;4.32;;;;;;;;;;9921084;29;20388;-89
2023/09/08 15:12:10;;;;;;;5.43;4.63;;;29.30;87.30;;;;;;9925601;30;20476;-78
2023/09/08 15:17:31;;;;;;;7.20;4.53;;;29.30;99.90;;;;;;9924905;29;20258;-79
2023/09/08 15:22:52;;;;;;;5.95;4.57;;;29.00;99.90;;;;;;9928661;29;20207;-79
2023/09/08 15:28:14;;;;;;;8.00;3.97;;;28.80;98.30;;;;;;9897131;29;20213;-79
2023/09/08 15:33:36;;;;;;;6.43;5.40;;;28.70;99.90;;;;;;9922377;29;20247;-78
2023/09/08 15:38:57;;;;;;;5.63;4.40;;;28.60;99.90;;;;;;9914295;30;20278;-79
2023/09/08 15:44:18;;;;;;;6.05;4.43;;;28.60;99.90;;;;;;9897454;29;20490;-79
2023/09/08 15:54:59;;;;;;;5.85;4.78;;;28.30;99.90;;;;;;9892756;30;20233;-79
2023/09/08 16:00:20;;;;;;;6.10;5.03;;;28.10;98.60;;;;;;9915959;29;20210;-80
2023/09/08 16:05:41;;;;;;;10.10;6.78;;;28.20;1.00;;;;;;9930740;30;20209;-80
2023/09/08 16:11:03;;;;;;;6.43;4.75;;;;;;;;;;9937952;29;20307;-79
2023/09/08 16:16:24;;;;;;;6.15;4.57;;;27.70;1.00;;;;;;9909254;30;20201;-80
2023/09/08 16:21:45;;;;;;;7.63;5.22;;;27.70;99.90;;;;;;9892908;30;20205;-79
2023/09/08 16:27:08;;;;;;;6.55;5.38;;;27.60;99.90;;;;;;9895736;29;20206;-80
2023/09/08 16:32:29;;;;;;;7.80;5.00;;;27.50;91.40;;;;;;9891807;30;20241;-80
2023/09/08 16:37:50;;;;;;;12.90;5.97;;;27.30;99.90;;;;;;9892111;30;20269;-78
2023/09/08 16:43:11;;;;;;;9.40;6.78;;;27.00;99.90;;;;;;9901286;29;20214;-79
2023/09/08 16:48:32;;;;;;;15.23;7.18;;;26.90;99.90;;;;;;9920355;30;20201;-79
2023/09/08 16:53:53;;;;;;;15.52;7.22;;;26.70;99.90;;;;;;9890870;30;20233;-79
2023/09/08 16:59:15;;;;;;;9.98;6.68;;;26.40;99.90;;;;;;9908670;29;20208;-80
2023/09/08 17:04:37;;;;;;;14.65;6.72;;;;;;;;;;9894994;30;20206;-80
2023/09/08 17:09:58;;;;;;;11.82;5.85;;;26.10;99.90;;;;;;9903907;29;20550;-79
2023/09/08 17:15:20;;;;;;;8.07;5.65;;;25.90;99.90;;;;;;9921087;29;20264;-80
2023/09/08 17:20:41;;;;;;;7.47;5.63;;;25.80;99.90;;;;;;9889992;30;20259;-79
2023/09/08 17:26:02;;;;;;;8.65;5.80;;;;;;;;;;9896930;29;20472;-80
2023/09/08 17:31:23;;;;;;;15.70;8.57;;;23.60;1.00;;;;;;9891320;30;20229;-79
2023/09/08 17:36:44;;;;;;;11.52;7.60;;;25.20;99.90;;;;;;9902685;30;20255;-80
2023/09/08 17:42:06;;;;;;;9.73;6.05;;;25.00;99.90;;;;;;9921125;29;20208;-80
2023/09/08 17:47:27;;;;;;;7.75;6.10;;;24.70;99.90;;;;;;9931569;29;20205;-80
2023/09/08 17:52:48;;;;;;;6.82;5.40;;;;;;;;;;9931169;29;20594;-80
2023/09/08 17:58:09;;;;;;;12.25;6.63;;;24.50;99.90;;;;;;9906185;29;20263;-80
2023/09/08 18:03:30;;;;;;;8.07;5.90;;;24.40;99.90;;;;;;9933997;29;20205;-80
2023/09/08 18:08:51;;;;;;;10.45;5.93;;;24.20;99.90;;;;;;9931783;29;20284;-80
2023/09/08 18:14:13;;;;;;;16.92;6.30;;;24.00;99.90;;;;;;9930831;29;20236;-78
2023/09/08 18:19:35;;;;;;;10.80;7.00;;;23.90;99.90;;;;;;9930349;29;20209;-79
2023/09/08 18:24:56;;;;;;;10.52;7.22;;;23.80;1.00;;;;;;9910143;29;20239;-79
2023/09/08 18:30:17;;;;;;;11.65;7.47;;;23.70;99.90;;;;;;9903537;29;20267;-79
2023/09/08 18:35:39;;;;;;;19.40;7.22;;;23.50;99.90;;;;;;9902465;29;20504;-79
2023/09/08 18:41:01;;;;;;;12.57;8.25;;;23.40;99.90;;;;;;9908822;30;20292;-79
2023/09/08 18:46:23;;;;;;;15.88;8.32;;;;;;;;;;9916276;29;20425;-78
2023/09/08 18:51:44;;;;;;;12.93;8.80;;;;;;;;;;9921977;29;20235;-79
2023/09/08 18:57:05;;;;;;;11.50;8.02;;;23.10;99.90;;;;;;9913930;29;20241;-78
2023/09/08 19:02:26;;;;;;;10.75;8.77;;;22.90;99.90;;;;;;9925045;30;20591;-78
2023/09/08 19:07:47;;;;;;;9.88;7.43;;;22.80;1.00;;;;;;9933028;29;20201;-80
2023/09/08 19:13:08;;;;;;;9.15;7.13;;;22.60;1.00;;;;;;9928743;29;20236;-80
2023/09/08 19:18:29;;;;;;;13.23;7.38;;;22.50;1.00;;;;;;9907531;30;20210;-80
2023/09/08 19:23:51;;;;;;;11.45;8.07;;;22.40;1.00;;;;;;9910115;29;20391;-80
2023/09/08 19:29:12;;;;;;;10.27;7.13;;;22.40;1.00;;;;;;9900362;29;20205;-80
2023/09/08 19:34:33;;;;;;;8.32;7.03;;;;;;;;;;9900922;29;20304;-80
2023/09/08 19:39:55;;;;;;;9.50;7.35;;;;;;;;;;9895116;30;20217;-80
2023/09/08 19:45:16;;;;;;;10.82;8.32;;;22.10;1.00;;;;;;9904230;29;20255;-81
2023/09/08 19:50:38;;;;;;;10.98;7.80;;;22.00;1.00;;;;;;9897570;29;20282;-80
2023/09/08 19:55:59;;;;;;;16.00;9.10;;;21.80;1.00;;;;;;9913187;29;20256;-80
2023/09/08 20:01:20;;;;;;;13.38;8.45;;;21.60;1.00;;;;;;9933012;29;20228;-79
2023/09/08 20:06:44;;;;;;;10.50;8.00;;;;;;;;;;9897042;30;20209;-80
2023/09/08 20:12:05;;;;;;;11.10;7.72;;;21.50;1.00;;;;;;9907909;29;20315;-80
2023/09/08 20:17:26;;;;;;;11.40;7.30;;;21.30;1.00;;;;;;9899450;29;20281;-80
2023/09/08 20:22:47;;;;;;;9.45;7.00;;;21.20;1.00;;;;;;9899694;29;20217;-80
2023/09/08 20:28:08;;;;;;;8.98;6.63;;;21.20;99.90;;;;;;9893026;30;20394;-80
2023/09/08 20:33:30;;;;;;;7.95;6.57;;;21.20;94.00;;;;;;9901001;29;20570;-80
2023/09/08 20:38:52;;;;;;;7.20;6.45;;;21.20;92.80;;;;;;9892727;30;20225;-79
2023/09/08 20:44:14;;;;;;;9.98;7.60;;;21.20;94.10;;;;;;9910076;29;20209;-80
2023/09/08 20:49:35;;;;;;;9.27;7.88;;;21.10;99.90;;;;;;9891903;30;20210;-80
2023/09/08 20:54:56;;;;;;;11.45;8.10;;;21.10;99.90;;;;;;9906023;29;20253;-79
2023/09/08 21:00:17;;;;;;;11.73;8.65;;;21.00;99.90;;;;;;9901153;29;20210;-79
2023/09/08 21:05:40;;;;;;;10.27;8.57;;;21.00;99.90;;;;;;9890778;30;20264;-79
2023/09/08 21:11:02;;;;;;;13.40;8.70;;;20.90;99.90;;;;;;9926609;29;20527;-79
2023/09/08 21:16:23;;;;;;;10.55;9.23;;;20.80;99.90;;;;;;9927641;29;20308;-79
2023/09/08 21:21:44;;;;;;;15.27;9.10;;;20.70;99.90;;;;;;9928059;29;20276;-79
2023/09/08 21:27:05;;;;;;;12.90;8.35;;;20.60;99.90;;;;;;9891235;30;20235;-79
2023/09/08 21:32:26;;;;;;;11.60;8.15;;;20.60;99.90;;;;;;9891421;30;20555;-79
2023/09/08 21:37:49;;;;;;;12.02;8.48;;;20.50;99.90;;;;;;9894476;29;20250;-79
2023/09/08 21:43:10;;;;;;;12.80;8.35;;;20.50;99.90;;;;;;9904961;30;20259;-79
2023/09/08 21:48:31;;;;;;;18.17;10.63;;;20.40;1.00;;;;;;9928576;29;20205;-79
2023/09/08 21:53:52;;;;;;;16.40;10.05;;;20.30;99.90;;;;;;9913482;29;20261;-79
2023/09/08 21:59:14;;;;;;;19.42;10.38;;;20.30;1.00;;;;;;9907067;29;20234;-79
2023/09/08 22:04:34;;;;;;;19.45;10.40;;;20.10;1.00;;;;;;9927745;30;20364;-79
2023/09/08 22:09:56;;;;;;;16.40;9.50;;;;;;;;;;9920306;29;20238;-79
2023/09/08 22:15:18;;;;;;;18.55;9.63;;;;;;;;;;9928009;29;20257;-79
2023/09/08 22:20:41;;;;;;;17.27;8.80;;;;;;;;;;9926421;29;20285;-79
2023/09/08 22:26:02;;;;;;;12.88;8.88;;;;;;;;;;9891757;29;20409;-79
2023/09/08 22:31:24;;;;;;;13.20;8.85;;;;;;;;;;9889694;30;20229;-79
2023/09/08 22:36:44;;;;;;;18.55;9.57;;;19.80;99.90;;;;;;9897115;30;20255;-79
2023/09/08 22:42:06;;;;;;;17.70;9.85;;;;;;;;;;9963526;29;20396;-79
2023/09/08 22:47:27;;;;;;;18.92;10.23;;;;;;;;;;9950053;29;20213;-79
2023/09/08 22:52:49;;;;;;;17.15;10.48;;;;;;;;;;9916443;29;20256;-79
2023/09/08 22:58:10;;;;;;;16.73;10.25;;;;;;;;;;9916247;29;20506;-79
2023/09/08 23:03:32;;;;;;;20.92;10.18;;;;;;;;;;9917848;29;20288;-79
2023/09/08 23:08:53;;;;;;;15.82;8.82;;;19.70;1.00;;;;;;9931289;29;20287;-79
2023/09/08 23:14:14;;;;;;;14.52;8.75;;;19.50;1.00;;;;;;9930719;30;20233;-79
2023/09/08 23:19:35;;;;;;;17.30;9.10;;;;;;;;;;9931565;30;20289;-80
2023/09/08 23:24:57;;;;;;;15.52;8.95;;;;;;;;;;9917302;29;20496;-80
2023/09/08 23:30:18;;;;;;;15.68;8.80;;;19.40;1.00;;;;;;9931351;29;20500;-80
2023/09/08 23:35:41;;;;;;;13.85;8.55;;;;;;;;;;9930953;30;20547;-80
2023/09/08 23:41:03;;;;;;;16.60;9.48;;;19.00;19.00;;;;;;9915810;29;20589;-79
2023/09/08 23:46:24;;;;;;;16.45;9.32;;;19.00;39.00;;;;;;9930744;29;20209;-80
2023/09/08 23:51:45;;;;;;;19.92;12.15;;;18.90;1.00;;;;;;9930317;29;20228;-79
2023/09/08 23:57:06;;;;;;;24.02;13.05;;;18.70;99.90;;;;;;9912632;29;20257;-80
